Terminal Aerodrome Forecast
Issued by NWS Louisville, KY

Home | Current Version | Previous Version | Text Only | Print | Product List | Glossary On
Versions: 1 2 3 4 5 6 7 8 9 10 11 12 13 14 15
852
FTUS43 KLMK 302320
TAFSDF
TAF
KSDF 302320Z 0100/0206 13005KT P6SM -RA BKN100
     FM010200 17005KT P6SM -SHRA VCTS BKN040CB
     FM010600 19005KT P6SM BKN100
     FM011500 24008KT P6SM BKN040 PROB30 0119/0123 5SM TSRA
      BKN030CB=

USA.gov is the U.S. government's official web portal to all federal, state and local government web resources and services.